Time;durP1;ratioP1;P1;durP2;ratioP2;P2;SDS_P1;SDS_P2;PMS_P1;PMS_P2;Temp;Humidity;BMP_temperature;BMP_pressure;BME280_temperature;BME280_humidity;BME280_pressure;Samples;Min_cycle;Max_cycle;Signal;HPM_P1;HPM_P2
2021/01/26 14:49:12;;;;;;;81.38;71.50;;;;;;;;;;5111997;27;20426;-49
2021/01/26 14:51:38;;;;;;;82.50;73.50;;;;;;;;;;5111193;28;20427;-48
2021/01/26 14:54:04;;;;;;;83.68;74.68;;;;;;;;;;5111741;28;20081;-48
2021/01/26 14:56:30;;;;;;;80.07;71.38;;;;;;;;;;5111414;28;20031;-48
2021/01/26 14:58:56;;;;;;;80.30;71.65;;;;;;;;;;5111151;28;20020;-48
2021/01/26 15:01:21;;;;;;;90.50;81.43;;;;;;;;;;5111071;28;20038;-51
2021/01/26 15:03:47;;;;;;;86.45;77.70;;;;;;;;;;5110902;28;20028;-49
2021/01/26 15:06:14;;;;;;;83.68;75.07;;;;;;;;;;5111220;28;20028;-52
2021/01/26 15:08:39;;;;;;;83.03;74.57;;;;;;;;;;5110832;28;20035;-49
2021/01/26 15:11:05;;;;;;;84.28;75.63;;;;;;;;;;5112498;28;20389;-49
2021/01/26 15:13:31;;;;;;;83.32;74.82;;;;;;;;;;5111346;28;20463;-49
2021/01/26 15:15:57;;;;;;;84.28;75.68;;;;;;;;;;5111558;28;20032;-47
2021/01/26 15:18:24;;;;;;;83.65;75.13;;;;;;;;;;5110721;28;20033;-48
2021/01/26 15:20:51;;;;;;;83.47;74.88;;;;;;;;;;5110897;28;20031;-50
2021/01/26 15:23:17;;;;;;;85.43;76.53;;;;;;;;;;5110645;28;20023;-49
2021/01/26 15:25:43;;;;;;;88.43;79.50;;;;;;;;;;5110856;28;20377;-50
2021/01/26 15:28:09;;;;;;;85.45;76.85;;;;;;;;;;5110544;28;20027;-50
2021/01/26 15:30:34;;;;;;;87.55;78.75;;;;;;;;;;5110543;28;20039;-48
2021/01/26 15:33:00;;;;;;;87.05;78.35;;;;;;;;;;5110438;28;20024;-48
2021/01/26 15:35:26;;;;;;;82.90;74.47;;;;;;;;;;5110592;28;20036;-48
2021/01/26 15:37:57;;;;;;;87.75;78.75;;;;;;;;;;5110633;28;20031;-47
2021/01/26 15:40:24;;;;;;;85.82;76.90;;;;;;;;;;5109269;28;20020;-47
2021/01/26 15:42:50;;;;;;;91.40;82.25;;;;;;;;;;5110563;28;20107;-47
2021/01/26 15:45:16;;;;;;;92.35;83.22;;;;;;;;;;5110212;28;20119;-47
2021/01/26 15:47:42;;;;;;;94.32;85.15;;;;;;;;;;5109968;28;20528;-48
2021/01/26 15:50:08;;;;;;;95.30;86.05;;;;;;;;;;5109933;28;20477;-49
2021/01/26 15:52:34;;;;;;;95.38;86.07;;;;;;;;;;5110191;28;20088;-44
2021/01/26 15:55:00;;;;;;;94.85;85.70;;;;;;;;;;5110211;28;20481;-44
2021/01/26 15:57:26;;;;;;;93.50;84.18;;;;;;;;;;5109929;28;20024;-46
2021/01/26 15:59:52;;;;;;;86.53;77.93;;;;;;;;;;5100533;28;20382;-47
2021/01/26 16:02:18;;;;;;;87.53;78.78;;;;;;;;;;5096435;28;20389;-48
2021/01/26 16:04:44;;;;;;;85.75;77.05;;;;;;;;;;5096224;28;20504;-48
2021/01/26 16:07:10;;;;;;;87.28;78.32;;;;;;;;;;5096523;28;20110;-47
2021/01/26 16:09:39;;;;;;;82.70;74.20;;;;;;;;;;5096038;28;20103;-47
2021/01/26 16:12:05;;;;;;;84.07;75.55;;;;;;;;;;5096002;28;20032;-48
2021/01/26 16:14:31;;;;;;;82.43;73.93;;;;;;;;;;5096015;28;20024;-47
2021/01/26 16:16:57;;;;;;;89.65;80.55;;;;;;;;;;5096266;28;20024;-48
2021/01/26 16:19:23;;;;;;;94.07;84.97;;;;;;;;;;5096110;28;20016;-49
2021/01/26 16:21:49;;;;;;;94.38;85.18;;;;;;;;;;5095712;28;20043;-49
2021/01/26 16:24:15;;;;;;;93.35;84.25;;;;;;;;;;5096154;28;20032;-48
2021/01/26 16:26:41;;;;;;;91.82;82.82;;;;;;;;;;5096098;28;20031;-47
2021/01/26 16:29:07;;;;;;;92.20;83.15;;;;;;;;;;5095827;28;20107;-47
2021/01/26 16:31:33;;;;;;;94.03;84.78;;;;;;;;;;5095989;28;20055;-48
2021/01/26 16:33:59;;;;;;;89.95;81.00;;;;;;;;;;5095639;28;20028;-47
2021/01/26 16:36:25;;;;;;;93.07;83.95;;;;;;;;;;5095538;28;20055;-47
2021/01/26 16:38:51;;;;;;;107.57;80.70;;;;;;;;;;5093935;28;20068;-51
2021/01/26 16:41:17;;;;;;;92.68;83.25;;;;;;;;;;5095574;28;20028;-47
2021/01/26 16:43:43;;;;;;;92.68;83.35;;;;;;;;;;5095438;28;20036;-48
2021/01/26 16:46:12;;;;;;;93.47;83.85;;;;;;;;;;5095390;28;20145;-47
2021/01/26 16:48:38;;;;;;;93.57;84.28;;;;;;;;;;5095131;28;20036;-47
2021/01/26 16:51:04;;;;;;;94.00;84.75;;;;;;;;;;5095241;28;20500;-47
2021/01/26 16:53:30;;;;;;;94.60;85.20;;;;;;;;;;5095290;28;20051;-47
2021/01/26 16:56:00;;;;;;;90.53;81.32;;;;;;;;;;5095211;28;20393;-47
2021/01/26 16:58:26;;;;;;;90.30;81.20;;;;;;;;;;5095375;28;20028;-47
2021/01/26 17:00:52;;;;;;;94.88;85.57;;;;;;;;;;5095175;28;20028;-50
2021/01/26 17:03:18;;;;;;;93.72;84.53;;;;;;;;;;5095354;28;20109;-47
2021/01/26 17:05:44;;;;;;;92.70;83.32;;;;;;;;;;5095299;28;20409;-47
2021/01/26 17:08:12;;;;;;;92.22;83.00;;;;;;;;;;5095118;28;20024;-47
2021/01/26 17:10:39;;;;;;;94.88;85.47;;;;;;;;;;5094591;28;20052;-48
2021/01/26 17:13:05;;;;;;;90.72;81.43;;;;;;;;;;5095074;28;20123;-47
2021/01/26 17:15:31;;;;;;;95.95;86.47;;;;;;;;;;5095079;28;20489;-47
2021/01/26 17:17:57;;;;;;;92.20;82.90;;;;;;;;;;5094792;28;20473;-47
2021/01/26 17:20:23;;;;;;;91.88;82.53;;;;;;;;;;5095222;28;20385;-47
2021/01/26 17:22:50;;;;;;;90.78;81.60;;;;;;;;;;5094993;28;20482;-47
2021/01/26 17:25:16;;;;;;;91.82;82.60;;;;;;;;;;5094906;28;20028;-50
2021/01/26 17:27:42;;;;;;;93.10;83.70;;;;;;;;;;5094541;28;20158;-47
2021/01/26 17:30:09;;;;;;;91.03;81.75;;;;;;;;;;5094449;28;20054;-47
2021/01/26 17:32:35;;;;;;;89.40;80.28;;;;;;;;;;5094735;28;20031;-46
2021/01/26 17:35:01;;;;;;;90.57;80.78;;;;;;;;;;5095061;28;20374;-45
2021/01/26 17:37:27;;;;;;;92.70;83.20;;;;;;;;;;5094356;28;20028;-45
2021/01/26 17:39:53;;;;;;;95.35;85.85;;;;;;;;;;5094347;28;20435;-45
2021/01/26 17:42:20;;;;;;;89.28;79.88;;;;;;;;;;5095503;28;20032;-45
2021/01/26 17:44:46;;;;;;;90.90;81.45;;;;;;;;;;5094533;28;20393;-45
2021/01/26 17:47:12;;;;;;;91.05;81.10;;;;;;;;;;5094646;28;20097;-46
